PRIVATE WETTERSTATION BILLIGHEIM-ALLFELD                       ZURCK
Wetterdaten: Mittwoch, 13.09.2017
Datum Zeit Temp. A. Temp. A. min Temp. A. max Feuchte A. Luftdruck Regen Wind Richtung Richtung Sonnenschein ET Solar Taupunkt Windchill Windben Empfang
13.09.2017 00:00 10,9 C 10,9 C 10,9 C 87 % 1013,4 hPa 0,0 l/m 0,0 km/h (0 Bft) N 0 0 min 0,025 mm 0 W/m 8,8 C 10,9 C 0,0 km/h (0 Bft) 98 %
13.09.2017 00:10 10,8 C 10,8 C 10,9 C 88 % 1013,5 hPa 0,0 l/m 0,0 km/h (0 Bft) S 180 0 min 0,000 mm 0 W/m 8,9 C 10,8 C 4,8 km/h (1 Bft) 88 %
13.09.2017 00:20 10,8 C 10,8 C 10,8 C 88 % 1013,5 hPa 0,0 l/m 3,2 km/h (1 Bft) S 180 0 min 0,000 mm 0 W/m 8,9 C 10,8 C 9,7 km/h (2 Bft) 97 %
13.09.2017 00:30 10,8 C 10,8 C 10,8 C 87 % 1013,4 hPa 0,0 l/m 3,2 km/h (1 Bft) S 180 0 min 0,000 mm 0 W/m 8,7 C 10,8 C 9,7 km/h (2 Bft) 97 %
13.09.2017 00:40 10,7 C 10,7 C 10,8 C 87 % 1013,3 hPa 0,0 l/m 0,0 km/h (0 Bft) S-SO 157 0 min 0,000 mm 0 W/m 8,6 C 10,7 C 8,0 km/h (2 Bft) 98 %
13.09.2017 00:50 10,6 C 10,6 C 10,7 C 87 % 1013,3 hPa 0,0 l/m 0,0 km/h (0 Bft) S-SO 157 0 min 0,000 mm 0 W/m 8,5 C 10,6 C 4,8 km/h (1 Bft) 97 %
13.09.2017 01:00 10,6 C 10,6 C 10,6 C 87 % 1013,3 hPa 0,0 l/m 1,6 km/h (1 Bft) S-SO 157 0 min 0,000 mm 0 W/m 8,5 C 10,6 C 6,4 km/h (2 Bft) 98 %
13.09.2017 01:10 10,3 C 10,3 C 10,6 C 88 % 1013,1 hPa 0,0 l/m 0,0 km/h (0 Bft) S-SO 157 0 min 0,000 mm 0 W/m 8,4 C 10,3 C 6,4 km/h (2 Bft) 98 %
13.09.2017 01:20 10,2 C 10,2 C 10,3 C 88 % 1013,0 hPa 0,0 l/m 3,2 km/h (1 Bft) S-SO 157 0 min 0,000 mm 0 W/m 8,3 C 10,2 C 8,0 km/h (2 Bft) 97 %
13.09.2017 01:30 10,1 C 10,1 C 10,2 C 88 % 1013,0 hPa 0,0 l/m 4,8 km/h (1 Bft) S-SO 157 0 min 0,000 mm 0 W/m 8,2 C 10,1 C 11,3 km/h (2 Bft) 98 %
13.09.2017 01:40 10,2 C 10,1 C 10,2 C 88 % 1012,9 hPa 0,0 l/m 4,8 km/h (1 Bft) S-SO 157 0 min 0,000 mm 0 W/m 8,3 C 10,2 C 11,3 km/h (2 Bft) 97 %
13.09.2017 01:50 10,5 C 10,2 C 10,5 C 88 % 1012,9 hPa 0,0 l/m 6,4 km/h (2 Bft) S-SO 157 0 min 0,000 mm 0 W/m 8,6 C 10,5 C 14,5 km/h (3 Bft) 98 %
13.09.2017 02:00 10,4 C 10,4 C 10,5 C 88 % 1012,8 hPa 0,0 l/m 6,4 km/h (2 Bft) S-SO 157 0 min 0,000 mm 0 W/m 8,5 C 10,4 C 14,5 km/h (3 Bft) 97 %
13.09.2017 02:10 10,4 C 10,4 C 10,4 C 88 % 1012,5 hPa 0,0 l/m 6,4 km/h (2 Bft) S-SO 157 0 min 0,000 mm 0 W/m 8,5 C 10,4 C 16,1 km/h (3 Bft) 97 %
13.09.2017 02:20 10,5 C 10,4 C 10,5 C 88 % 1012,5 hPa 0,0 l/m 8,0 km/h (2 Bft) S-SO 157 0 min 0,000 mm 0 W/m 8,6 C 9,4 C 17,7 km/h (3 Bft) 98 %
13.09.2017 02:30 10,3 C 10,3 C 10,5 C 88 % 1012,5 hPa 0,0 l/m 6,4 km/h (2 Bft) S-SO 157 0 min 0,000 mm 0 W/m 8,4 C 10,3 C 16,1 km/h (3 Bft) 97 %
13.09.2017 02:40 10,2 C 10,1 C 10,3 C 88 % 1012,3 hPa 0,0 l/m 6,4 km/h (2 Bft) S-SO 157 0 min 0,000 mm 0 W/m 8,3 C 10,2 C 14,5 km/h (3 Bft) 98 %
13.09.2017 02:50 10,1 C 10,1 C 10,2 C 88 % 1012,1 hPa 0,0 l/m 4,8 km/h (1 Bft) S-SO 157 0 min 0,000 mm 0 W/m 8,2 C 10,1 C 17,7 km/h (3 Bft) 97 %
13.09.2017 03:00 10,1 C 10,0 C 10,1 C 88 % 1012,1 hPa 0,0 l/m 3,2 km/h (1 Bft) S-SO 157 0 min 0,025 mm 0 W/m 8,2 C 10,1 C 11,3 km/h (2 Bft) 98 %
13.09.2017 03:10 10,1 C 10,0 C 10,1 C 88 % 1011,9 hPa 0,0 l/m 6,4 km/h (2 Bft) S-SO 157 0 min 0,000 mm 0 W/m 8,2 C 10,1 C 22,5 km/h (4 Bft) 98 %
13.09.2017 03:20 10,0 C 9,9 C 10,1 C 88 % 1011,7 hPa 0,0 l/m 9,7 km/h (2 Bft) S-SO 157 0 min 0,000 mm 0 W/m 8,1 C 7,8 C 19,3 km/h (3 Bft) 97 %
13.09.2017 03:30 10,0 C 10,0 C 10,1 C 88 % 1011,5 hPa 0,0 l/m 9,7 km/h (2 Bft) S-SO 157 0 min 0,000 mm 0 W/m 8,1 C 7,8 C 20,9 km/h (4 Bft) 98 %
13.09.2017 03:40 9,9 C 9,9 C 10,0 C 88 % 1011,5 hPa 0,0 l/m 9,7 km/h (2 Bft) S-SO 157 0 min 0,000 mm 0 W/m 8,0 C 7,7 C 20,9 km/h (4 Bft) 97 %
13.09.2017 03:50 9,9 C 9,9 C 9,9 C 88 % 1011,3 hPa 0,0 l/m 8,0 km/h (2 Bft) S-SO 157 0 min 0,000 mm 0 W/m 8,0 C 8,7 C 17,7 km/h (3 Bft) 98 %
13.09.2017 04:00 9,9 C 9,8 C 9,9 C 88 % 1011,1 hPa 0,0 l/m 8,0 km/h (2 Bft) S-SO 157 0 min 0,025 mm 0 W/m 8,0 C 8,7 C 19,3 km/h (3 Bft) 97 %
13.09.2017 04:10 9,9 C 9,9 C 9,9 C 88 % 1010,8 hPa 0,0 l/m 9,7 km/h (2 Bft) S-SO 157 0 min 0,000 mm 0 W/m 8,0 C 7,7 C 20,9 km/h (4 Bft) 97 %
13.09.2017 04:20 9,9 C 9,9 C 9,9 C 88 % 1010,8 hPa 0,0 l/m 8,0 km/h (2 Bft) S-SO 157 0 min 0,000 mm 0 W/m 8,0 C 8,7 C 20,9 km/h (4 Bft) 97 %
13.09.2017 04:30 9,8 C 9,8 C 9,8 C 88 % 1010,5 hPa 0,0 l/m 9,7 km/h (2 Bft) S 180 0 min 0,000 mm 0 W/m 7,9 C 7,6 C 17,7 km/h (3 Bft) 98 %
13.09.2017 04:40 10,1 C 9,8 C 10,1 C 87 % 1010,3 hPa 0,0 l/m 9,7 km/h (2 Bft) S 180 0 min 0,000 mm 0 W/m 8,0 C 7,9 C 20,9 km/h (4 Bft) 98 %
13.09.2017 04:50 10,2 C 10,0 C 10,2 C 87 % 1010,0 hPa 0,0 l/m 9,7 km/h (2 Bft) S-SO 157 0 min 0,000 mm 0 W/m 8,1 C 8,0 C 24,1 km/h (4 Bft) 97 %
13.09.2017 05:00 10,3 C 10,2 C 10,3 C 86 % 1009,7 hPa 0,0 l/m 9,7 km/h (2 Bft) S-SO 157 0 min 0,025 mm 0 W/m 8,1 C 8,1 C 20,9 km/h (4 Bft) 98 %
13.09.2017 05:10 10,4 C 10,3 C 10,4 C 86 % 1009,7 hPa 0,0 l/m 8,0 km/h (2 Bft) S 180 0 min 0,000 mm 0 W/m 8,2 C 9,3 C 22,5 km/h (4 Bft) 97 %
13.09.2017 05:20 10,5 C 10,4 C 10,5 C 85 % 1009,5 hPa 0,0 l/m 12,9 km/h (3 Bft) S 180 0 min 0,000 mm 0 W/m 8,1 C 6,7 C 24,1 km/h (4 Bft) 98 %
13.09.2017 05:30 10,6 C 10,5 C 10,6 C 84 % 1009,2 hPa 0,0 l/m 12,9 km/h (3 Bft) S-SO 157 0 min 0,000 mm 0 W/m 8,0 C 6,8 C 24,1 km/h (4 Bft) 98 %
13.09.2017 05:40 10,8 C 10,6 C 10,8 C 83 % 1009,1 hPa 0,0 l/m 11,3 km/h (2 Bft) S 180 0 min 0,000 mm 0 W/m 8,0 C 7,8 C 29,0 km/h (5 Bft) 98 %
13.09.2017 05:50 11,1 C 10,8 C 11,1 C 82 % 1008,7 hPa 0,0 l/m 9,7 km/h (2 Bft) S-SO 157 0 min 0,000 mm 0 W/m 8,1 C 9,0 C 25,7 km/h (4 Bft) 98 %
13.09.2017 06:00 11,3 C 11,1 C 11,3 C 80 % 1008,5 hPa 0,0 l/m 14,5 km/h (3 Bft) S-SO 157 0 min 0,025 mm 0 W/m 8,0 C 6,9 C 27,4 km/h (4 Bft) 98 %
13.09.2017 06:10 11,6 C 11,4 C 11,6 C 79 % 1008,4 hPa 0,0 l/m 12,9 km/h (3 Bft) S-SO 157 0 min 0,000 mm 0 W/m 8,1 C 7,9 C 25,7 km/h (4 Bft) 98 %
13.09.2017 06:20 11,7 C 11,6 C 11,7 C 78 % 1008,2 hPa 0,0 l/m 12,9 km/h (3 Bft) S-SO 157 0 min 0,000 mm 0 W/m 8,0 C 8,1 C 24,1 km/h (4 Bft) 96 %
13.09.2017 06:30 11,8 C 11,7 C 11,8 C 77 % 1008,0 hPa 0,0 l/m 16,1 km/h (3 Bft) S-SO 157 0 min 0,000 mm 0 W/m 7,9 C 6,9 C 32,2 km/h (5 Bft) 98 %
13.09.2017 06:40 11,8 C 11,8 C 11,8 C 76 % 1007,9 hPa 0,0 l/m 16,1 km/h (3 Bft) S-SO 157 0 min 0,000 mm 0 W/m 7,7 C 6,9 C 29,0 km/h (5 Bft) 98 %
13.09.2017 06:50 11,9 C 11,8 C 11,9 C 77 % 1007,6 hPa 0,0 l/m 16,1 km/h (3 Bft) S-SO 157 0 min 0,000 mm 0 W/m 8,0 C 7,0 C 30,6 km/h (5 Bft) 97 %
13.09.2017 07:00 12,0 C 11,9 C 12,0 C 76 % 1007,3 hPa 0,0 l/m 16,1 km/h (3 Bft) S-SO 157 0 min 0,051 mm 0 W/m 7,9 C 7,1 C 30,6 km/h (5 Bft) 97 %
13.09.2017 07:10 12,1 C 12,0 C 12,1 C 76 % 1007,2 hPa 0,0 l/m 17,7 km/h (3 Bft) S-SO 157 0 min 0,000 mm 9 W/m 8,0 C 6,7 C 41,8 km/h (6 Bft) 96 %
13.09.2017 07:20 12,1 C 12,1 C 12,1 C 76 % 1007,1 hPa 0,0 l/m 14,5 km/h (3 Bft) S-SO 157 0 min 0,000 mm 14 W/m 8,0 C 7,9 C 29,0 km/h (5 Bft) 97 %
13.09.2017 07:30 12,2 C 12,1 C 12,2 C 76 % 1007,2 hPa 0,0 l/m 14,5 km/h (3 Bft) S-SO 157 0 min 0,000 mm 32 W/m 8,1 C 8,0 C 32,2 km/h (5 Bft) 98 %
13.09.2017 07:40 12,3 C 12,2 C 12,4 C 77 % 1007,0 hPa 0,0 l/m 14,5 km/h (3 Bft) S-SO 157 0 min 0,000 mm 39 W/m 8,4 C 8,1 C 35,4 km/h (5 Bft) 98 %
13.09.2017 07:50 12,2 C 12,2 C 12,3 C 77 % 1007,1 hPa 0,0 l/m 12,9 km/h (3 Bft) S-SO 157 0 min 0,000 mm 40 W/m 8,3 C 8,6 C 33,8 km/h (5 Bft) 98 %
13.09.2017 08:00 12,2 C 12,2 C 12,2 C 78 % 1007,2 hPa 0,0 l/m 12,9 km/h (3 Bft) S-SO 157 0 min 0,051 mm 32 W/m 8,5 C 8,6 C 27,4 km/h (4 Bft) 98 %
13.09.2017 08:10 12,1 C 12,1 C 12,2 C 78 % 1006,9 hPa 0,0 l/m 12,9 km/h (3 Bft) S-SO 157 0 min 0,000 mm 33 W/m 8,4 C 8,5 C 25,7 km/h (4 Bft) 97 %
13.09.2017 08:20 12,1 C 12,1 C 12,1 C 79 % 1007,1 hPa 0,0 l/m 9,7 km/h (2 Bft) S-SW 202 0 min 0,000 mm 26 W/m 8,6 C 10,1 C 24,1 km/h (4 Bft) 97 %
13.09.2017 08:30 11,9 C 11,9 C 12,1 C 80 % 1006,9 hPa 0,0 l/m 9,7 km/h (2 Bft) S-SW 202 0 min 0,000 mm 28 W/m 8,6 C 9,9 C 20,9 km/h (4 Bft) 97 %
13.09.2017 08:40 11,8 C 11,8 C 11,9 C 81 % 1007,1 hPa 0,0 l/m 6,4 km/h (2 Bft) S 180 0 min 0,000 mm 33 W/m 8,6 C 11,8 C 16,1 km/h (3 Bft) 98 %
13.09.2017 08:50 11,8 C 11,8 C 11,8 C 81 % 1007,0 hPa 0,0 l/m 4,8 km/h (1 Bft) S 180 0 min 0,000 mm 23 W/m 8,6 C 11,8 C 14,5 km/h (3 Bft) 98 %
13.09.2017 09:00 11,8 C 11,8 C 11,8 C 81 % 1007,0 hPa 0,0 l/m 3,2 km/h (1 Bft) S-SO 157 0 min 0,025 mm 25 W/m 8,6 C 11,8 C 11,3 km/h (2 Bft) 97 %
13.09.2017 09:10 11,9 C 11,8 C 11,9 C 81 % 1006,9 hPa 0,0 l/m 3,2 km/h (1 Bft) S 180 0 min 0,000 mm 33 W/m 8,7 C 11,9 C 8,0 km/h (2 Bft) 97 %
13.09.2017 09:20 12,1 C 11,9 C 12,1 C 80 % 1006,8 hPa 0,0 l/m 3,2 km/h (1 Bft) S-SO 157 0 min 0,000 mm 32 W/m 8,8 C 12,1 C 9,7 km/h (2 Bft) 97 %
13.09.2017 09:30 12,3 C 12,1 C 12,3 C 81 % 1006,9 hPa 0,0 l/m 4,8 km/h (1 Bft) SO 135 0 min 0,000 mm 49 W/m 9,1 C 12,3 C 11,3 km/h (2 Bft) 98 %
13.09.2017 09:40 12,8 C 12,3 C 12,8 C 84 % 1006,7 hPa 0,0 l/m 16,1 km/h (3 Bft) S-SW 202 0 min 0,000 mm 56 W/m 10,2 C 8,1 C 49,9 km/h (6 Bft) 97 %
13.09.2017 09:50 13,6 C 12,8 C 13,6 C 83 % 1006,6 hPa 0,0 l/m 20,9 km/h (4 Bft) S-SW 202 0 min 0,000 mm 72 W/m 10,8 C 7,7 C 45,1 km/h (6 Bft) 97 %
13.09.2017 10:00 13,9 C 13,6 C 13,9 C 82 % 1007,0 hPa 0,0 l/m 22,5 km/h (4 Bft) SW 225 0 min 0,051 mm 97 W/m 10,9 C 7,7 C 49,9 km/h (6 Bft) 98 %
13.09.2017 10:10 14,0 C 13,9 C 14,0 C 83 % 1006,7 hPa 0,0 l/m 20,9 km/h (4 Bft) SW 225 0 min 0,000 mm 91 W/m 11,2 C 8,2 C 49,9 km/h (6 Bft) 97 %
13.09.2017 10:20 14,2 C 14,0 C 14,2 C 82 % 1006,8 hPa 0,0 l/m 20,9 km/h (4 Bft) SW 225 0 min 0,000 mm 121 W/m 11,2 C 8,5 C 45,1 km/h (6 Bft) 98 %
13.09.2017 10:30 14,2 C 14,1 C 14,3 C 83 % 1006,7 hPa 0,0 l/m 19,3 km/h (3 Bft) SW 225 0 min 0,000 mm 130 W/m 11,4 C 8,9 C 53,1 km/h (7 Bft) 97 %
13.09.2017 10:40 14,3 C 14,2 C 14,3 C 82 % 1006,5 hPa 0,0 l/m 16,1 km/h (3 Bft) S-SW 202 0 min 0,000 mm 146 W/m 11,3 C 10,0 C 33,8 km/h (5 Bft) 88 %
13.09.2017 10:50 14,5 C 14,3 C 14,5 C 83 % 1006,7 hPa 0,0 l/m 19,3 km/h (3 Bft) S-SW 202 10 min 0,000 mm 156 W/m 11,6 C 9,3 C 51,5 km/h (7 Bft) 97 %
13.09.2017 11:00 14,5 C 14,4 C 14,5 C 83 % 1006,5 hPa 0,0 l/m 16,1 km/h (3 Bft) SW 225 10 min 0,102 mm 155 W/m 11,6 C 10,2 C 40,2 km/h (6 Bft) 97 %
13.09.2017 11:10 14,7 C 14,5 C 14,7 C 83 % 1006,5 hPa 0,0 l/m 20,9 km/h (4 Bft) SW 225 10 min 0,000 mm 185 W/m 11,8 C 9,1 C 45,1 km/h (6 Bft) 98 %
13.09.2017 11:20 14,7 C 14,7 C 14,8 C 84 % 1006,6 hPa 0,0 l/m 20,9 km/h (4 Bft) S-SW 202 10 min 0,000 mm 172 W/m 12,0 C 9,1 C 40,2 km/h (6 Bft) 98 %
13.09.2017 11:30 14,4 C 14,4 C 14,7 C 86 % 1006,5 hPa 0,0 l/m 16,1 km/h (3 Bft) SW 225 0 min 0,000 mm 142 W/m 12,1 C 10,1 C 48,3 km/h (6 Bft) 98 %
13.09.2017 11:40 14,5 C 14,4 C 14,6 C 86 % 1006,2 hPa 0,0 l/m 17,7 km/h (3 Bft) S-SW 202 10 min 0,000 mm 271 W/m 12,2 C 9,7 C 40,2 km/h (6 Bft) 98 %
13.09.2017 11:50 14,9 C 14,6 C 14,9 C 85 % 1006,2 hPa 0,0 l/m 14,5 km/h (3 Bft) S-SW 202 10 min 0,000 mm 287 W/m 12,4 C 11,2 C 33,8 km/h (5 Bft) 98 %
13.09.2017 12:00 15,1 C 14,9 C 15,1 C 85 % 1006,3 hPa 0,0 l/m 17,7 km/h (3 Bft) SW 225 10 min 0,127 mm 190 W/m 12,6 C 10,5 C 40,2 km/h (6 Bft) 97 %
13.09.2017 12:10 14,9 C 14,9 C 15,1 C 87 % 1006,3 hPa 0,0 l/m 19,3 km/h (3 Bft) SW 225 0 min 0,000 mm 148 W/m 12,8 C 9,8 C 41,8 km/h (6 Bft) 97 %
13.09.2017 12:20 14,6 C 14,6 C 14,9 C 88 % 1006,1 hPa 0,2 l/m 16,1 km/h (3 Bft) S-SW 202 0 min 0,000 mm 132 W/m 12,6 C 10,3 C 35,4 km/h (5 Bft) 98 %
13.09.2017 12:30 14,6 C 14,5 C 14,6 C 87 % 1006,2 hPa 0,0 l/m 16,1 km/h (3 Bft) SW 225 0 min 0,000 mm 130 W/m 12,5 C 10,3 C 35,4 km/h (5 Bft) 98 %
13.09.2017 12:40 15,1 C 14,6 C 15,1 C 86 % 1006,2 hPa 0,0 l/m 16,1 km/h (3 Bft) S-SW 202 10 min 0,000 mm 162 W/m 12,8 C 11,0 C 35,4 km/h (5 Bft) 98 %
13.09.2017 12:50 15,5 C 15,1 C 15,5 C 83 % 1006,1 hPa 0,0 l/m 20,9 km/h (4 Bft) S-SW 202 10 min 0,000 mm 160 W/m 12,6 C 10,2 C 49,9 km/h (6 Bft) 98 %
13.09.2017 13:00 16,2 C 15,6 C 16,2 C 80 % 1006,1 hPa 0,0 l/m 24,1 km/h (4 Bft) S-SW 202 10 min 0,102 mm 271 W/m 12,7 C 10,4 C 54,7 km/h (7 Bft) 97 %
13.09.2017 13:10 16,8 C 16,2 C 16,8 C 77 % 1006,3 hPa 0,0 l/m 25,7 km/h (4 Bft) SW 225 10 min 0,000 mm 315 W/m 12,7 C 10,9 C 53,1 km/h (7 Bft) 97 %
13.09.2017 13:20 17,1 C 16,8 C 17,1 C 75 % 1006,7 hPa 0,0 l/m 22,5 km/h (4 Bft) SW 225 10 min 0,000 mm 288 W/m 12,6 C 11,9 C 53,1 km/h (7 Bft) 98 %
13.09.2017 13:30 17,7 C 17,1 C 17,7 C 73 % 1006,4 hPa 0,0 l/m 29,0 km/h (5 Bft) SW 225 10 min 0,000 mm 598 W/m 12,8 C 11,6 C 64,4 km/h (8 Bft) 98 %
13.09.2017 13:40 17,9 C 17,7 C 17,9 C 72 % 1006,4 hPa 0,0 l/m 22,5 km/h (4 Bft) SW 225 10 min 0,000 mm 503 W/m 12,8 C 13,0 C 53,1 km/h (7 Bft) 98 %
13.09.2017 13:50 18,3 C 17,9 C 18,3 C 71 % 1006,3 hPa 0,0 l/m 19,3 km/h (3 Bft) SW 225 10 min 0,000 mm 606 W/m 12,9 C 14,2 C 54,7 km/h (7 Bft) 98 %
13.09.2017 14:00 18,3 C 18,3 C 18,3 C 70 % 1006,4 hPa 0,0 l/m 24,1 km/h (4 Bft) SW 225 10 min 0,279 mm 490 W/m 12,7 C 13,2 C 48,3 km/h (6 Bft) 98 %
13.09.2017 14:10 18,6 C 18,3 C 18,6 C 69 % 1006,6 hPa 0,0 l/m 22,5 km/h (4 Bft) W-SW 247 10 min 0,000 mm 543 W/m 12,8 C 13,9 C 64,4 km/h (8 Bft) 98 %
13.09.2017 14:20 18,8 C 18,6 C 18,8 C 66 % 1006,5 hPa 0,0 l/m 17,7 km/h (3 Bft) W-SW 247 10 min 0,000 mm 492 W/m 12,3 C 15,1 C 45,1 km/h (6 Bft) 98 %
13.09.2017 14:30 18,7 C 18,7 C 18,8 C 67 % 1006,9 hPa 0,0 l/m 24,1 km/h (4 Bft) W 270 10 min 0,000 mm 281 W/m 12,4 C 13,8 C 61,2 km/h (7 Bft) 98 %
13.09.2017 14:40 17,9 C 17,9 C 18,7 C 76 % 1007,1 hPa 0,0 l/m 24,1 km/h (4 Bft) W-SW 247 10 min 0,000 mm 172 W/m 13,6 C 12,7 C 57,9 km/h (7 Bft) 98 %
13.09.2017 14:50 16,8 C 16,8 C 17,9 C 83 % 1007,0 hPa 0,0 l/m 11,3 km/h (2 Bft) SW 225 10 min 0,000 mm 160 W/m 13,9 C 14,6 C 32,2 km/h (5 Bft) 97 %
13.09.2017 15:00 15,9 C 15,9 C 16,8 C 86 % 1007,2 hPa 0,0 l/m 11,3 km/h (2 Bft) SW 225 0 min 0,178 mm 81 W/m 13,6 C 13,6 C 25,7 km/h (4 Bft) 98 %
13.09.2017 15:10 15,4 C 15,4 C 15,9 C 87 % 1007,3 hPa 0,0 l/m 14,5 km/h (3 Bft) SW 225 0 min 0,000 mm 74 W/m 13,2 C 11,8 C 37,0 km/h (5 Bft) 97 %
13.09.2017 15:20 15,2 C 15,2 C 15,4 C 88 % 1007,3 hPa 0,2 l/m 12,9 km/h (3 Bft) SW 225 0 min 0,000 mm 95 W/m 13,2 C 12,2 C 33,8 km/h (5 Bft) 98 %
13.09.2017 15:30 15,1 C 15,1 C 15,2 C 88 % 1007,2 hPa 0,0 l/m 9,7 km/h (2 Bft) SW 225 0 min 0,000 mm 51 W/m 13,1 C 13,4 C 25,7 km/h (4 Bft) 98 %
13.09.2017 15:40 15,1 C 15,1 C 15,1 C 88 % 1007,1 hPa 0,0 l/m 8,0 km/h (2 Bft) SW 225 0 min 0,000 mm 49 W/m 13,1 C 14,2 C 22,5 km/h (4 Bft) 98 %
13.09.2017 15:50 15,1 C 15,1 C 15,1 C 88 % 1007,0 hPa 0,0 l/m 9,7 km/h (2 Bft) S-SW 202 0 min 0,000 mm 67 W/m 13,1 C 13,4 C 25,7 km/h (4 Bft) 98 %
13.09.2017 16:00 15,4 C 15,1 C 15,4 C 87 % 1007,0 hPa 0,0 l/m 11,3 km/h (2 Bft) SW 225 0 min 0,051 mm 98 W/m 13,2 C 13,0 C 25,7 km/h (4 Bft) 97 %
13.09.2017 16:10 15,8 C 15,4 C 15,8 C 85 % 1007,0 hPa 0,0 l/m 9,7 km/h (2 Bft) SW 225 0 min 0,000 mm 102 W/m 13,3 C 14,1 C 20,9 km/h (4 Bft) 98 %
13.09.2017 16:20 16,1 C 15,8 C 16,1 C 83 % 1006,7 hPa 0,0 l/m 9,7 km/h (2 Bft) SW 225 0 min 0,000 mm 113 W/m 13,2 C 14,5 C 24,1 km/h (4 Bft) 98 %
13.09.2017 16:30 16,3 C 16,2 C 16,3 C 82 % 1007,0 hPa 0,0 l/m 17,7 km/h (3 Bft) SW 225 0 min 0,000 mm 93 W/m 13,2 C 12,0 C 57,9 km/h (7 Bft) 99 %
13.09.2017 16:40 15,8 C 15,8 C 16,3 C 85 % 1007,1 hPa 0,0 l/m 16,1 km/h (3 Bft) SW 225 0 min 0,000 mm 93 W/m 13,3 C 11,8 C 37,0 km/h (5 Bft) 100 %
13.09.2017 16:50 15,3 C 15,3 C 15,8 C 88 % 1007,0 hPa 0,2 l/m 8,0 km/h (2 Bft) SW 225 0 min 0,000 mm 79 W/m 13,3 C 14,4 C 27,4 km/h (4 Bft) 99 %
13.09.2017 17:00 15,1 C 15,1 C 15,3 C 88 % 1006,7 hPa 0,4 l/m 3,2 km/h (1 Bft) SW 225 0 min 0,051 mm 56 W/m 13,1 C 15,1 C 20,9 km/h (4 Bft) 100 %
13.09.2017 17:10 14,8 C 14,8 C 15,1 C 88 % 1006,6 hPa 0,4 l/m 4,8 km/h (1 Bft) W 270 0 min 0,000 mm 53 W/m 12,8 C 14,8 C 24,1 km/h (4 Bft) 100 %
13.09.2017 17:20 14,6 C 14,6 C 14,8 C 88 % 1006,5 hPa 0,4 l/m 6,4 km/h (2 Bft) W 270 0 min 0,000 mm 46 W/m 12,6 C 14,6 C 20,9 km/h (4 Bft) 100 %
13.09.2017 17:30 14,5 C 14,5 C 14,6 C 88 % 1006,6 hPa 0,4 l/m 8,0 km/h (2 Bft) W 270 0 min 0,000 mm 46 W/m 12,5 C 13,6 C 19,3 km/h (3 Bft) 99 %
13.09.2017 17:40 14,5 C 14,4 C 14,5 C 88 % 1006,7 hPa 0,6 l/m 12,9 km/h (3 Bft) W 270 0 min 0,000 mm 46 W/m 12,5 C 11,3 C 24,1 km/h (4 Bft) 100 %
13.09.2017 17:50 14,5 C 14,4 C 14,5 C 88 % 1006,5 hPa 0,4 l/m 11,3 km/h (2 Bft) W 270 0 min 0,000 mm 47 W/m 12,5 C 12,0 C 29,0 km/h (5 Bft) 100 %
13.09.2017 18:10 14,6 C 14,4 C 14,6 C 89 % 1006,4 hPa 0,6 l/m 15,0 km/h (3 Bft) W 263 0 min 0,001 mm 39 W/m 12,8 C 10,7 C 35,4 km/h (5 Bft) 97 %
13.09.2017 18:20 14,6 C 14,6 C 14,6 C 89 % 1006,3 hPa 0,2 l/m 11,2 km/h (2 Bft) W 267 0 min 0,000 mm 23 W/m 12,8 C 12,1 C 27,4 km/h (4 Bft) 97 %
13.09.2017 18:30 14,4 C 14,4 C 14,6 C 88 % 1006,5 hPa 0,0 l/m 14,0 km/h (3 Bft) W-SW 248 0 min 0,000 mm 16 W/m 12,4 C 10,8 C 35,4 km/h (5 Bft) 97 %
13.09.2017 18:40 14,2 C 14,2 C 14,4 C 89 % 1006,0 hPa 0,0 l/m 10,1 km/h (2 Bft) W 259 0 min 0,000 mm 21 W/m 12,4 C 12,2 C 29,0 km/h (5 Bft) 97 %
13.09.2017 18:50 14,1 C 14,1 C 14,2 C 88 % 1006,2 hPa 0,2 l/m 7,3 km/h (2 Bft) SO 141 0 min 0,000 mm 7 W/m 12,1 C 13,6 C 22,5 km/h (4 Bft) 97 %
13.09.2017 19:00 14,0 C 14,0 C 14,1 C 89 % 1005,8 hPa 0,4 l/m 7,4 km/h (2 Bft) W-SW 250 0 min 0,000 mm 0 W/m 12,2 C 13,4 C 22,5 km/h (4 Bft) 97 %
13.09.2017 19:10 14,0 C 13,9 C 14,0 C 89 % 1006,1 hPa 0,4 l/m 7,3 km/h (2 Bft) W-NW 288 0 min 0,025 mm 0 W/m 12,2 C 13,5 C 19,3 km/h (3 Bft) 98 %
13.09.2017 19:20 14,0 C 13,9 C 14,0 C 89 % 1005,9 hPa 0,4 l/m 10,0 km/h (2 Bft) W-NW 290 0 min 0,000 mm 0 W/m 12,2 C 12,0 C 24,1 km/h (4 Bft) 97 %
13.09.2017 19:30 13,8 C 13,8 C 14,0 C 89 % 1006,0 hPa 0,8 l/m 12,6 km/h (3 Bft) W-SW 242 0 min 0,000 mm 0 W/m 12,0 C 10,6 C 35,4 km/h (5 Bft) 98 %
13.09.2017 19:40 13,6 C 13,6 C 13,8 C 89 % 1006,1 hPa 0,6 l/m 12,2 km/h (2 Bft) W-NW 286 0 min 0,000 mm 0 W/m 11,8 C 10,6 C 29,0 km/h (5 Bft) 97 %
13.09.2017 19:50 13,3 C 13,3 C 13,6 C 89 % 1006,0 hPa 0,6 l/m 12,9 km/h (3 Bft) W 277 0 min 0,000 mm 0 W/m 11,5 C 9,9 C 30,6 km/h (5 Bft) 97 %
13.09.2017 20:00 13,2 C 13,2 C 13,3 C 89 % 1005,8 hPa 0,8 l/m 10,0 km/h (2 Bft) W-NW 290 0 min 0,000 mm 0 W/m 11,4 C 11,1 C 22,5 km/h (4 Bft) 97 %
13.09.2017 20:10 13,1 C 13,1 C 13,2 C 89 % 1005,9 hPa 0,8 l/m 7,2 km/h (2 Bft) W-NW 286 0 min 0,025 mm 0 W/m 11,3 C 12,6 C 16,1 km/h (3 Bft) 98 %
13.09.2017 20:20 13,0 C 12,9 C 13,1 C 89 % 1005,8 hPa 1,0 l/m 4,2 km/h (1 Bft) N-NW 346 0 min 0,001 mm 0 W/m 11,2 C 13,0 C 11,3 km/h (2 Bft) 98 %
13.09.2017 20:30 12,9 C 12,9 C 13,0 C 89 % 1006,0 hPa 0,4 l/m 3,1 km/h (1 Bft) W-NW 285 0 min 0,000 mm 0 W/m 11,1 C 12,9 C 11,3 km/h (2 Bft) 97 %
13.09.2017 20:40 12,9 C 12,9 C 12,9 C 89 % 1006,1 hPa 0,0 l/m 0,5 km/h (0 Bft) W-NW 286 0 min 0,000 mm 0 W/m 11,1 C 12,9 C 4,8 km/h (1 Bft) 98 %
13.09.2017 20:50 12,8 C 12,8 C 12,9 C 89 % 1006,1 hPa 0,4 l/m 1,1 km/h (1 Bft) W-NW 296 0 min 0,000 mm 0 W/m 11,0 C 12,8 C 6,4 km/h (2 Bft) 97 %
13.09.2017 21:00 12,8 C 12,8 C 12,8 C 89 % 1005,8 hPa 0,6 l/m 0,8 km/h (0 Bft) W-NW 296 0 min 0,000 mm 0 W/m 11,0 C 12,8 C 4,8 km/h (1 Bft) 97 %
13.09.2017 21:10 12,7 C 12,7 C 12,8 C 89 % 1005,8 hPa 0,0 l/m 0,0 km/h (0 Bft) N 0 0 min 0,000 mm 0 W/m 10,9 C 12,7 C 0,0 km/h (0 Bft) 100 %
13.09.2017 21:20 12,7 C 12,6 C 12,7 C 89 % 1005,9 hPa 0,4 l/m 0,0 km/h (0 Bft) W-NW 292 0 min 0,000 mm 0 W/m 10,9 C 12,7 C 1,6 km/h (1 Bft) 100 %
13.09.2017 21:30 12,6 C 12,6 C 12,7 C 89 % 1006,0 hPa 1,0 l/m 0,0 km/h (0 Bft) N 0 0 min 0,000 mm 0 W/m 10,8 C 12,6 C 0,0 km/h (0 Bft) 100 %
13.09.2017 21:40 12,6 C 12,6 C 12,6 C 89 % 1005,8 hPa 0,8 l/m 0,0 km/h (0 Bft) N 0 0 min 0,000 mm 0 W/m 10,8 C 12,6 C 0,0 km/h (0 Bft) 100 %
13.09.2017 21:50 12,6 C 12,6 C 12,6 C 89 % 1005,6 hPa 0,6 l/m 0,0 km/h (0 Bft) W-NW 292 0 min 0,000 mm 0 W/m 10,8 C 12,6 C 4,8 km/h (1 Bft) 89 %
13.09.2017 22:00 12,3 C 12,3 C 12,6 C 89 % 1005,4 hPa 0,4 l/m 0,0 km/h (0 Bft) N-NW 337 0 min 0,000 mm 0 W/m 10,5 C 12,3 C 3,2 km/h (1 Bft) 100 %
13.09.2017 22:10 12,2 C 12,2 C 12,3 C 89 % 1005,2 hPa 0,2 l/m 0,0 km/h (0 Bft) N 0 0 min 0,000 mm 0 W/m 10,4 C 12,2 C 0,0 km/h (0 Bft) 100 %
13.09.2017 22:20 12,2 C 12,2 C 12,2 C 89 % 1005,6 hPa 0,0 l/m 0,0 km/h (0 Bft) N-NW 337 0 min 0,000 mm 0 W/m 10,4 C 12,2 C 6,4 km/h (2 Bft) 100 %
13.09.2017 22:30 12,1 C 12,1 C 12,2 C 89 % 1004,8 hPa 0,2 l/m 3,2 km/h (1 Bft) O-SO 112 0 min 0,000 mm 0 W/m 10,3 C 12,1 C 8,0 km/h (2 Bft) 100 %
13.09.2017 22:40 12,1 C 12,1 C 12,1 C 89 % 1005,3 hPa 0,0 l/m 1,6 km/h (1 Bft) O-SO 112 0 min 0,000 mm 0 W/m 10,3 C 12,1 C 4,8 km/h (1 Bft) 100 %
13.09.2017 22:50 12,1 C 12,1 C 12,2 C 89 % 1004,9 hPa 0,2 l/m 0,0 km/h (0 Bft) N 0 0 min 0,000 mm 0 W/m 10,3 C 12,1 C 0,0 km/h (0 Bft) 100 %
13.09.2017 23:00 12,2 C 12,1 C 12,2 C 89 % 1005,7 hPa 1,0 l/m 6,4 km/h (2 Bft) NW 315 0 min 0,000 mm 0 W/m 10,4 C 12,2 C 19,3 km/h (3 Bft) 100 %
13.09.2017 23:10 12,1 C 12,1 C 12,2 C 89 % 1004,7 hPa 0,2 l/m 3,2 km/h (1 Bft) O 90 0 min 0,000 mm 0 W/m 10,3 C 12,1 C 6,4 km/h (2 Bft) 100 %
13.09.2017 23:20 12,1 C 12,1 C 12,2 C 89 % 1004,3 hPa 0,0 l/m 3,2 km/h (1 Bft) O 90 0 min 0,000 mm 0 W/m 10,3 C 12,1 C 4,8 km/h (1 Bft) 100 %
13.09.2017 23:30 12,1 C 12,1 C 12,1 C 89 % 1004,3 hPa 0,0 l/m 1,6 km/h (1 Bft) O 90 0 min 0,000 mm 0 W/m 10,3 C 12,1 C 4,8 km/h (1 Bft) 100 %
13.09.2017 23:40 12,2 C 12,1 C 12,2 C 89 % 1004,3 hPa 0,2 l/m 6,4 km/h (2 Bft) NW 315 0 min 0,000 mm 0 W/m 10,4 C 12,2 C 22,5 km/h (4 Bft) 100 %
13.09.2017 23:50 12,1 C 12,1 C 12,2 C 89 % 1004,1 hPa 0,0 l/m 0,0 km/h (0 Bft) O-SO 112 0 min 0,000 mm 0 W/m 10,3 C 12,1 C 6,4 km/h (2 Bft) 100 %
_ Min-Zeit 04:00 04:00 04:30 14:20 23:50 - 00:00 - - - - - 06:40 05:20 00:00 00:10
Minimum _ 9,8 C 9,8 C 9,8 C 66 % 1004,1 hPa - 0,0 km/h (0 Bft) - - - - - 7,7 C 6,7 C 0,0 km/h (0 Bft) 88 %
_ Max-Zeit 14:20 14:30 14:20 18:10 00:10 20:20 13:30 - - 10:50 14:00 13:50 14:50 14:20 13:30 16:40
Maximum _ 18,8 C 18,7 C 18,8 C 89 % 1013,5 hPa 1,0 l/m 29,0 km/h
SW (5 Bft)
- - 10 min 0,279 mm 606 W/m 13,9 C 15,1 C 64,4 km/h
W-SW (8 Bft)
100 %
Durchschnitt _ 13,0 C 13,0 C 13,1 C 85 % 1007,8 hPa #16,6 l/m 10,3 km/h (2 Bft) S-SO - #3:30 h #1,245 mm 137 W/m 10,5 C 10,8 C 25,2 km/h (4 Bft) 98 %
PRIVATE WETTERSTATION BILLIGHEIM-ALLFELD - www.neckar-odenwald-wetter.de - Holger Sonntag